Avery, Arkansas
Current Conditions -  °F | °C
As of 10:53 AM on Sunday 21 Dec 2014 (Local Time) from KLLQ Reporting Station
Clear Clear  
Wind Chill: 10°   Ceiling: Unl
Heat Index: 10°   Visibility: 10mi
Dew Point:   Wind: 8mph
Humidity: 59%   Direction: 100°E
Pressure: 30.15"   Gusts: NA
Location:  33.9283°N, 91.468°W
Report Text: KLLQ 211653Z AUTO 10007KT 10SM CLR 10/02 A3015 RMK AO2 SLP209 T01000022
Loading
Personal Weather Stations






























Interactive Weather Map New forecast layout! Learn more

10-Day Weather Forecast

Advertisements
Track Severe Weather on mobile